Meath Environmental Platform

Observations

Time Sensor AQI SAQ Temp °C Hum % Pres Pa CO μg/m³ H₂S μg/m³ NO μg/m³ NO₂ μg/m³ O₃ μg/m³ SO₂ μg/m³ CO₂e PPM VOC PPM PM1 μg/m³ PM2.5 μg/m³ PM4 μg/m³ PM10 μg/m³ TPS µm
Thursday 13 August 2026
02:31 Trim Market St 3 21.3 68 56,166 0.02 0.35 1.06 23.19 50.66 0 2.85 5.13 7.53
02:31 Trim Patrick St 2 20.7 72 38,456 0 16.21 1.09 26.82 40.34 6.23 7.14 12.18 13.4
02:30 Trim Market St 3 21.3 67 56,250 0.02 0.64 1.07 22.16 51.63 0 3.56 5.63 8.17
02:30 Trim Patrick St 2 20.7 72 38,454 0 15.92 1.08 51.21 20.64 4.97 7.14 11.46 12.61
02:29 Trim Market St 3 21.3 67 56,317 0.02 1.88 1.07 25.86 54.24 0 2.85 4.65 6.89
02:29 Trim Patrick St 2 20.7 72 38,452 0 12.81 1.08 25.83 42.36 5.85 8.86 12.19 13.41
02:28 Trim Market St 3 21.3 67 56,374 0.01 1.8 1.08 26.78 52.93 0 3.56 5.64 8.17
02:28 Trim Patrick St 2 20.6 72 38,449 0 15.13 1.08 35.39 33.34 5.66 6.29 11.49 12.63
02:27 Trim Market St 3 21.3 67 56,444 0.01 0.72 1.07 24.23 52.18 0 3.56 5.15 7.53
02:27 Trim Patrick St 2 20.7 72 38,445 0 15.6 1.07 22.88 43.48 6.1 5.43 10.05 11.06
02:26 Trim Market St 3 21.3 67 56,508 0.02 0.8 1.07 23.75 55.72 0 3.56 4.18 6.24
02:26 Trim Patrick St 2 20.7 72 38,440 0 15.13 1.06 54.56 18.72 4.94 4.57 9.34 10.28
02:25 Trim Market St 3 21.3 67 56,580 0.01 1.88 1.06 24.31 55.42 0 2.85 4.19 6.24
02:24 Trim Patrick St 2 20.7 72 38,423 0 12.57 1.05 31.77 36.18 5.47 6.29 10.79 11.87
02:22 Trim Patrick St 2 20.6 71 38,394 0 14.18 1.08 24.31 46.29 6.27 6.29 10.82 11.9
02:20 Trim Market St 3 21.3 66 56,887 0 0.75 1.08 26.17 51.74 0 3.56 5.7 9.48
02:19 Trim Market St 3 21.3 66 56,941 0 0 1.07 20.13 61.61 0 4.28 6.19 10.13
02:19 Trim Patrick St 2 20.6 70 38,304 0 12.02 1.07 21.75 46.75 5.85 7.14 11.61 12.77
02:18 Trim Patrick St 2 20.6 69 38,252 0 16.29 1.07 41.48 32.7 5.68 8 12.43 13.67
02:17 Trim Patrick St 2 20.6 71 38,182 0 14.36 1.06 35.84 35.45 5.61 7.14 10.87 11.96